• Join FlightAware (Why Join?)
  • Login
  • US Flag 
11:38AM EDT


 

Airport Tracker/Info


-or-


 

Live Flight TrackerFlight Track Log ✈ JBU1853 ✈ 04-Sep-2013 ✈ KFLL - TJSJ / SJU

Flight Track Log - Related Links

Times and Time Zones

All times are in EDT time to prevent confusion due to time zone crossing. See the JBU1853 flight status page for this flight to view local times or setup timezone preferences in your user account.

Time Position Orientation Groundspeed Altitude Reporting Facility
EDT Latitude Longitude Course Direction KTS MPH feet Rate Location/Type
09:50PM 26.0753 -80.1275 99° East 159 183 1,000  Level Miami Center
09:51PM 26.0786 -80.0628 87° East 186 214 2,800 1,740 Climbing Miami Center
09:53PM 26.0219 -79.6317 104° East  Level FlightAware Approximate
09:53PM 26.0764 -79.9703 92° East 240 276 5,600  Level Miami Center
09:54PM 25.9871 -79.5076 119° Southeast  Level FlightAware Approximate
09:54PM 26.0636 -79.8911 100° East 251 289 8,300  Level Miami Center
09:55PM 25.9661 -79.3794 99° East  Level FlightAware Approximate
09:55PM 26.0464 -79.8028 102° East 268 308 11,100  Level Miami Center
09:56PM 26.0339 -79.7078 98° East 295 339 12,600 1,800 Climbing Miami Center
09:57PM 26.0150 -79.6033 101° East 322 371 14,800 2,220 Climbing Miami Center
09:58PM 25.9919 -79.4919 103° East 356 410 17,100 2,160 Climbing Miami Center
09:59PM 25.9731 -79.3689 100° East 363 418 19,200 1,800 Climbing Miami Center
10:00PM 25.9581 -79.2622 99° East 378 435 20,800 1,500 Climbing Miami Center
10:01PM 25.9456 -79.1397 96° East 388 447 22,300 1,500 Climbing Miami Center
10:02PM 25.9306 -79.0169 98° East 393 452 23,800 1,380 Climbing Miami Center
10:03PM 25.9094 -78.8964 101° East 398 458 25,100 1,200 Climbing Miami Center
10:04PM 25.8903 -78.7644 99° East 410 472 26,300 1,020 Climbing Miami Center
10:05PM 25.8711 -78.6303 99° East 429 494 27,200 960 Climbing Miami Center
10:06PM 25.8286 -78.5003 110° East 434 499 28,300 1,260 Climbing Miami Center
10:07PM 25.7672 -78.3817 120° Southeast 441 507 29,800 1,320 Climbing Miami Center
10:08PM 25.7036 -78.2633 121° Southeast 441 507 31,000 1,140 Climbing Miami Center
10:09PM 25.6378 -78.1450 122° Southeast 446 513 32,100 1,140 Climbing Miami Center
10:10PM 25.5761 -78.0269 120° Southeast 446 513 33,300 1,020 Climbing Miami Center
10:11PM 25.5122 -77.9089 121° Southeast 447 514 34,200 780 Climbing Miami Center
10:12PM 25.4525 -77.7886 119° Southeast 447 514 34,900 360 Climbing Miami Center
10:13PM 25.3822 -77.6661 122° Southeast 453 521 35,000 60 Climbing Miami Center
10:14PM 25.3181 -77.5417 120° Southeast 458 527 35,100 660 Climbing Miami Center
10:15PM 25.2475 -77.4056 120° Southeast 458 527 36,400 840 Climbing Miami Center
10:16PM 25.1811 -77.2836 121° Southeast 464 534 36,800 300 Climbing Miami Center
10:17PM 25.1103 -77.1617 123° Southeast 469 540 37,000 60 Climbing Miami Center
10:18PM 25.0414 -77.0400 122° Southeast 474 545 37,000  Level Miami Center
10:19PM 24.9706 -76.9161 122° Southeast 474 545 37,000  Level Miami Center
10:20PM 24.9014 -76.7947 122° Southeast 474 545 37,000  Level Miami Center
10:21PM 24.8344 -76.6711 121° Southeast 474 545 37,000  Level Miami Center
10:22PM 24.7717 -76.5636 123° Southeast 474 545 37,000  Level Miami Center
10:23PM 24.7044 -76.4403 121° Southeast 474 545 37,000  Level Miami Center
10:24PM 24.6331 -76.3217 123° Southeast 474 545 37,000  Level Miami Center
10:25PM 24.5594 -76.1869 121° Southeast 474 545 37,000  Level Miami Center
10:26PM 24.4897 -76.0711 123° Southeast 474 545 37,000  Level Miami Center
10:27PM 24.4222 -75.9481 121° Southeast 474 545 37,000  Level Miami Center
10:28PM 24.3525 -75.8278 122° Southeast 474 545 37,000  Level Miami Center
10:29PM 24.2847 -75.7122 123° Southeast 468 539 37,000  Level Miami Center
10:30PM 24.2169 -75.5919 122° Southeast 463 533 37,000  Level Miami Center
10:31PM 24.1469 -75.4719 123° Southeast 463 533 37,000  Level Miami Center
10:32PM 24.0767 -75.3522 123° Southeast 463 533 37,000  Level Miami Center
10:33PM 24.0169 -75.2483 122° Southeast 463 533 37,000  Level Miami Center
10:34PM 23.9467 -75.1264 122° Southeast 463 533 37,000  Level Miami Center
10:35PM 23.8783 -75.0069 122° Southeast 463 533 37,000  Level Miami Center
10:36PM 23.8081 -74.8919 124° Southeast 463 533 37,000  Level Miami Center
10:37PM 23.7375 -74.7728 123° Southeast 463 533 37,000  Level Miami Center
10:38PM 23.6708 -74.6561 122° Southeast 463 533 37,000  Level Miami Center
10:39PM 23.6003 -74.5372 123° Southeast 463 533 37,000  Level Miami Center
10:40PM 23.5294 -74.4206 123° Southeast 463 533 37,000  Level Miami Center
10:41PM 23.4606 -74.3019 122° Southeast 463 533 37,000  Level Miami Center
10:42PM 23.3897 -74.1900 125° Southeast 463 533 37,000  Level Miami Center
10:43PM 23.3208 -74.0739 123° Southeast 463 533 37,000  Level Miami Center
10:44PM 23.2536 -73.9556 122° Southeast 463 533 37,000  Level Miami Center
10:45PM 23.1825 -73.8397 124° Southeast 463 533 37,000  Level Miami Center
10:46PM 23.1111 -73.7239 124° Southeast 458 527 37,000  Level Miami Center
10:47PM 23.0439 -73.6083 122° Southeast 458 527 37,100 480 Climbing Miami Center
10:48PM 22.9767 -73.4925 122° Southeast 458 527 38,000 720 Climbing Miami Center
10:49PM 22.9072 -73.3772 123° Southeast 458 527 38,600 480 Climbing Miami Center
10:50PM 22.8397 -73.2619 122° Southeast 458 527 39,000 180 Climbing Miami Center
10:51PM 22.7700 -73.1467 123° Southeast 453 521 39,000  Level Miami Center
10:52PM 22.7044 -73.0225 120° Southeast 447 514 39,000  Level Miami Center
10:53PM 22.6344 -72.9053 123° Southeast 447 514 39,000  Level Miami Center
10:54PM 22.5689 -72.7883 121° Southeast 453 521 39,000  Level Miami Center
10:55PM 22.4967 -72.6736 124° Southeast 453 521 39,000  Level Miami Center
10:56PM 22.4267 -72.5569 123° Southeast 453 521 39,000  Level Miami Center
10:57PM 22.3564 -72.4403 123° Southeast 453 521 39,000  Level Miami Center
10:58PM 22.2883 -72.3236 122° Southeast 453 521 39,000  Level Miami Center
10:59PM 22.2181 -72.2072 123° Southeast 453 521 39,000  Level Miami Center
11:00PM 22.1497 -72.0908 122° Southeast 453 521 39,000  Level Miami Center
11:01PM 22.0814 -71.9769 123° Southeast 453 521 39,000  Level Miami Center
11:02PM 22.0131 -71.8608 122° Southeast 453 521 39,000  Level Miami Center
11:03PM 21.9422 -71.7450 123° Southeast 453 521 39,000  Level Miami Center
11:04PM 21.8717 -71.6292 123° Southeast 453 521 39,000  Level Miami Center
11:05PM 21.8031 -71.5136 123° Southeast 453 521 39,000  Level Miami Center
11:06PM 21.7342 -71.4003 123° Southeast 453 521 39,000  Level Miami Center
11:07PM 21.6678 -71.2892 123° Southeast 448 516 39,000  Level Miami Center
11:08PM 21.6161 -71.1953 121° Southeast 448 516 39,000  Level Miami Center
11:09PM 21.5364 -71.0694 124° Southeast 454 522 39,000  Level Miami Center
11:10PM 21.4653 -70.9522 123° Southeast 468 539 39,000  Level Miami Center
11:11PM 21.3942 -70.8417 125° Southeast 463 533 39,000  Level Miami Center
11:12PM 21.3250 -70.7292 123° Southeast 458 527 39,000  Level Miami Center
11:13PM 21.2539 -70.6189 125° Southeast 453 521 39,000  Level Miami Center
11:14PM 21.1869 -70.5086 123° Southeast 453 521 39,000  Level Miami Center
11:15PM 21.1175 -70.3942 123° Southeast 453 521 39,000  Level Miami Center
11:16PM 21.0464 -70.2867 125° Southeast 448 516 39,000  Level Miami Center
11:17PM 20.9769 -70.1747 124° Southeast 448 516 39,000  Level Miami Center
11:18PM 20.9094 -70.0647 123° Southeast 448 516 39,000  Level Miami Center
11:19PM 20.8400 -69.9553 124° Southeast 448 516 39,000  Level Miami Center
11:20PM 20.7706 -69.8436 124° Southeast 453 521 39,000  Level Miami Center
11:21PM 20.7008 -69.7342 124° Southeast 453 521 39,000  Level Miami Center
11:22PM 20.6311 -69.6228 124° Southeast 448 516 39,000  Level Miami Center
11:23PM 20.5614 -69.5114 124° Southeast 448 516 39,000  Level Miami Center
11:24PM 20.4917 -69.4025 124° Southeast 448 516 39,000  Level Miami Center
11:25PM 20.4150 -69.2853 125° Southeast 448 516 39,000  Level Miami Center
11:26PM 20.3431 -69.1742 125° Southeast 448 516 39,000  Level Miami Center
11:27PM 20.2772 -69.0633 122° Southeast 448 516 39,000  Level Miami Center
11:28PM 20.2050 -68.9528 125° Southeast 448 516 39,000  Level Miami Center
11:29PM 20.1350 -68.8442 124° Southeast 448 516 39,000  Level Miami Center
11:30PM 20.0689 -68.7358 123° Southeast 448 516 39,000  Level Miami Center
11:31PM 20.0008 -68.6297 124° Southeast 448 516 39,000  Level Miami Center
11:32PM 19.9286 -68.5194 125° Southeast 448 516 39,000  Level Miami Center
11:33PM 19.8581 -68.4094 124° Southeast 448 516 39,000  Level Miami Center
11:34PM 19.8000 -68.3000 119° Southeast 440 506 39,000  Level San Juan Center
11:35PM 19.7333 -68.1833 121° Southeast 450 518 39,000  Level San Juan Center
11:36PM 19.6667 -68.0833 125° Southeast 440 506 39,000  Level San Juan Center
11:37PM 19.5833 -67.9667 127° Southeast 450 518 39,000  Level San Juan Center
11:38PM 19.5167 -67.8667 125° Southeast 450 518 39,000 -1,200 Level San Juan Center
11:39PM 19.4500 -67.7500 121° Southeast 440 506 36,600 -2,160 Descending San Juan Center
11:40PM 19.3833 -67.6333 121° Southeast 440 506 34,700 -2,280 Descending San Juan Center
11:41PM 19.3167 -67.5333 125° Southeast 450 518 32,100 -2,400 Descending San Juan Center
11:42PM 19.2333 -67.4333 131° Southeast 460 529 29,900 -2,400 Descending San Juan Center
11:43PM 19.1667 -67.3167 121° Southeast 480 552 27,400 -2,340 Descending San Juan Center
11:44PM 19.0833 -67.2000 127° Southeast 460 529 25,300 -2,340 Descending San Juan Center
11:45PM 19.0000 -67.1000 131° Southeast 430 495 22,700 -2,400 Descending San Juan Center
11:46PM 18.9167 -66.9833 127° Southeast 430 495 20,600 -2,160 Descending San Juan Center
11:47PM 18.8333 -66.9000 137° Southeast 410 472 18,500 -2,040 Descending San Juan Center
11:48PM 18.7833 -66.8167 122° Southeast 400 460 16,500 -2,040 Descending San Juan Center
11:49PM 18.7000 -66.7333 137° Southeast 370 426 14,500 -1,920 Descending San Juan Center
11:50PM 18.6333 -66.6500 130° Southeast 360 414 12,700 -1,680 Descending San Juan Center
11:51PM 18.5833 -66.5667 122° Southeast 320 368 11,200 -1,320 Descending San Juan Center
11:52PM 18.5167 -66.5167 145° Southeast 280 322 10,100 -1,440 Descending San Juan Center
11:53PM 18.4833 -66.4500 118° Southeast 270 311 8,400 -1,920 Descending San Juan Center
11:54PM 18.4333 -66.3833 128° Southeast 260 299 6,300 -2,040 Descending San Juan Center
11:55PM 18.4333 -66.3167 90° East 250 288 4,300 -1,680 Descending San Juan Center
11:56PM 18.4333 -66.2333 90° East 240 276 3,000 -660 Descending San Juan Center
11:57PM 18.4333 -66.1833 90° East 200 230 3,000 -420 Level San Juan Center
11:58PM 18.4333 -66.1333 90° East 180 207 2,200 -840 Descending San Juan Center
11:59PM 18.4333 -66.0833 90° East 160 184 1,400 -720 Descending San Juan Center
12:00AM 18.4333 -66.0500 90° East 110 127 800 -600 Descending San Juan Center
12:01AM 18.4333 -66.0167 90° East 130 150 200 -600 Descending San Juan Center